sensor_id;sensor_type;location;lat;lon;timestamp;P1;durP1;ratioP1;P2;durP2;ratioP2
55601;SDS011;59921;51.332;12.410;2023-09-07T00:00:46;2.67;;;2.10;;
55601;SDS011;59921;51.332;12.410;2023-09-07T00:03:13;2.25;;;1.90;;
55601;SDS011;59921;51.332;12.410;2023-09-07T00:05:39;2.10;;;1.73;;
55601;SDS011;59921;51.332;12.410;2023-09-07T00:08:04;3.25;;;1.70;;
55601;SDS011;59921;51.332;12.410;2023-09-07T00:10:31;2.13;;;1.80;;
55601;SDS011;59921;51.332;12.410;2023-09-07T00:13:00;2.22;;;1.67;;
55601;SDS011;59921;51.332;12.410;2023-09-07T00:15:27;1.88;;;1.67;;
55601;SDS011;59921;51.332;12.410;2023-09-07T00:17:54;2.40;;;1.58;;
55601;SDS011;59921;51.332;12.410;2023-09-07T00:20:20;2.15;;;1.70;;
55601;SDS011;59921;51.332;12.410;2023-09-07T00:22:46;2.05;;;1.80;;
55601;SDS011;59921;51.332;12.410;2023-09-07T00:25:12;2.08;;;1.80;;
55601;SDS011;59921;51.332;12.410;2023-09-07T00:27:39;2.25;;;1.80;;
55601;SDS011;59921;51.332;12.410;2023-09-07T00:30:05;1.90;;;1.70;;
55601;SDS011;59921;51.332;12.410;2023-09-07T00:32:32;1.90;;;1.70;;
55601;SDS011;59921;51.332;12.410;2023-09-07T00:34:59;1.90;;;1.70;;
55601;SDS011;59921;51.332;12.410;2023-09-07T00:37:24;1.95;;;1.55;;
55601;SDS011;59921;51.332;12.410;2023-09-07T00:39:50;1.77;;;1.67;;
55601;SDS011;59921;51.332;12.410;2023-09-07T00:42:17;1.95;;;1.80;;
55601;SDS011;59921;51.332;12.410;2023-09-07T00:44:43;1.60;;;1.50;;
55601;SDS011;59921;51.332;12.410;2023-09-07T00:47:09;1.83;;;1.45;;
55601;SDS011;59921;51.332;12.410;2023-09-07T00:49:35;1.70;;;1.60;;
55601;SDS011;59921;51.332;12.410;2023-09-07T00:52:01;2.03;;;1.77;;
55601;SDS011;59921;51.332;12.410;2023-09-07T00:54:26;2.30;;;1.83;;
55601;SDS011;59921;51.332;12.410;2023-09-07T00:56:54;2.17;;;1.70;;
55601;SDS011;59921;51.332;12.410;2023-09-07T00:59:20;2.03;;;1.60;;
55601;SDS011;59921;51.332;12.410;2023-09-07T01:01:46;1.95;;;1.70;;
55601;SDS011;59921;51.332;12.410;2023-09-07T01:04:11;2.03;;;1.80;;
55601;SDS011;59921;51.332;12.410;2023-09-07T01:06:40;1.80;;;1.52;;
55601;SDS011;59921;51.332;12.410;2023-09-07T01:09:23;1.67;;;1.55;;
55601;SDS011;59921;51.332;12.410;2023-09-07T01:11:51;1.60;;;1.50;;
55601;SDS011;59921;51.332;12.410;2023-09-07T01:14:18;2.28;;;1.70;;
55601;SDS011;59921;51.332;12.410;2023-09-07T01:16:44;1.85;;;1.60;;
55601;SDS011;59921;51.332;12.410;2023-09-07T01:19:09;1.80;;;1.50;;
55601;SDS011;59921;51.332;12.410;2023-09-07T01:21:37;2.00;;;1.52;;
55601;SDS011;59921;51.332;12.410;2023-09-07T01:24:04;1.90;;;1.67;;
55601;SDS011;59921;51.332;12.410;2023-09-07T01:26:33;1.60;;;1.50;;
55601;SDS011;59921;51.332;12.410;2023-09-07T01:29:00;1.98;;;1.77;;
55601;SDS011;59921;51.332;12.410;2023-09-07T01:31:26;1.63;;;1.52;;
55601;SDS011;59921;51.332;12.410;2023-09-07T01:33:52;1.83;;;1.67;;
55601;SDS011;59921;51.332;12.410;2023-09-07T01:36:18;2.17;;;1.67;;
55601;SDS011;59921;51.332;12.410;2023-09-07T01:38:43;2.05;;;1.70;;
55601;SDS011;59921;51.332;12.410;2023-09-07T01:41:09;1.80;;;1.60;;
55601;SDS011;59921;51.332;12.410;2023-09-07T01:43:35;1.70;;;1.60;;
55601;SDS011;59921;51.332;12.410;2023-09-07T01:46:00;1.55;;;1.45;;
55601;SDS011;59921;51.332;12.410;2023-09-07T01:48:26;1.80;;;1.52;;
55601;SDS011;59921;51.332;12.410;2023-09-07T01:50:52;1.65;;;1.40;;
55601;SDS011;59921;51.332;12.410;2023-09-07T01:53:19;1.65;;;1.42;;
55601;SDS011;59921;51.332;12.410;2023-09-07T01:55:44;1.65;;;1.55;;
55601;SDS011;59921;51.332;12.410;2023-09-07T01:58:10;1.63;;;1.52;;
55601;SDS011;59921;51.332;12.410;2023-09-07T02:00:36;2.13;;;1.73;;
55601;SDS011;59921;51.332;12.410;2023-09-07T02:03:04;2.55;;;1.40;;
55601;SDS011;59921;51.332;12.410;2023-09-07T02:05:31;1.85;;;1.65;;
55601;SDS011;59921;51.332;12.410;2023-09-07T02:07:59;1.70;;;1.40;;
55601;SDS011;59921;51.332;12.410;2023-09-07T02:10:25;1.60;;;1.50;;
55601;SDS011;59921;51.332;12.410;2023-09-07T02:12:50;1.63;;;1.52;;
55601;SDS011;59921;51.332;12.410;2023-09-07T02:15:17;1.65;;;1.55;;
55601;SDS011;59921;51.332;12.410;2023-09-07T02:17:42;1.75;;;1.52;;
55601;SDS011;59921;51.332;12.410;2023-09-07T02:20:10;2.05;;;1.67;;
55601;SDS011;59921;51.332;12.410;2023-09-07T02:22:37;1.50;;;1.40;;
55601;SDS011;59921;51.332;12.410;2023-09-07T02:25:03;1.30;;;1.20;;
55601;SDS011;59921;51.332;12.410;2023-09-07T02:27:31;1.67;;;1.52;;
55601;SDS011;59921;51.332;12.410;2023-09-07T02:29:58;1.77;;;1.40;;
55601;SDS011;59921;51.332;12.410;2023-09-07T02:32:23;1.80;;;1.50;;
55601;SDS011;59921;51.332;12.410;2023-09-07T02:34:49;1.42;;;1.33;;
55601;SDS011;59921;51.332;12.410;2023-09-07T02:37:15;1.63;;;1.38;;
55601;SDS011;59921;51.332;12.410;2023-09-07T02:39:41;1.67;;;1.42;;
55601;SDS011;59921;51.332;12.410;2023-09-07T02:42:07;1.60;;;1.40;;
55601;SDS011;59921;51.332;12.410;2023-09-07T02:44:33;1.58;;;1.48;;
55601;SDS011;59921;51.332;12.410;2023-09-07T02:46:59;2.15;;;1.60;;
55601;SDS011;59921;51.332;12.410;2023-09-07T02:49:24;1.95;;;1.38;;
55601;SDS011;59921;51.332;12.410;2023-09-07T02:51:50;1.58;;;1.48;;
55601;SDS011;59921;51.332;12.410;2023-09-07T02:54:15;1.77;;;1.52;;
55601;SDS011;59921;51.332;12.410;2023-09-07T02:56:41;1.98;;;1.77;;
55601;SDS011;59921;51.332;12.410;2023-09-07T02:59:06;1.58;;;1.48;;
55601;SDS011;59921;51.332;12.410;2023-09-07T03:01:32;1.52;;;1.42;;
55601;SDS011;59921;51.332;12.410;2023-09-07T03:03:58;1.70;;;1.50;;
55601;SDS011;59921;51.332;12.410;2023-09-07T03:06:23;1.50;;;1.40;;
55601;SDS011;59921;51.332;12.410;2023-09-07T03:08:49;1.42;;;1.27;;
55601;SDS011;59921;51.332;12.410;2023-09-07T03:11:15;1.55;;;1.40;;
55601;SDS011;59921;51.332;12.410;2023-09-07T03:13:41;1.52;;;1.38;;
55601;SDS011;59921;51.332;12.410;2023-09-07T03:16:07;1.60;;;1.50;;
55601;SDS011;59921;51.332;12.410;2023-09-07T03:18:33;1.70;;;1.50;;
55601;SDS011;59921;51.332;12.410;2023-09-07T03:20:59;1.30;;;1.20;;
55601;SDS011;59921;51.332;12.410;2023-09-07T03:23:27;2.03;;;1.60;;
55601;SDS011;59921;51.332;12.410;2023-09-07T03:25:53;2.15;;;1.63;;
55601;SDS011;59921;51.332;12.410;2023-09-07T03:28:18;1.40;;;1.30;;
55601;SDS011;59921;51.332;12.410;2023-09-07T03:30:44;1.40;;;1.30;;
55601;SDS011;59921;51.332;12.410;2023-09-07T03:33:09;1.55;;;1.45;;
55601;SDS011;59921;51.332;12.410;2023-09-07T03:35:35;1.83;;;1.50;;
55601;SDS011;59921;51.332;12.410;2023-09-07T03:38:00;1.55;;;1.45;;
55601;SDS011;59921;51.332;12.410;2023-09-07T03:40:26;1.60;;;1.33;;
55601;SDS011;59921;51.332;12.410;2023-09-07T03:42:51;1.60;;;1.40;;
55601;SDS011;59921;51.332;12.410;2023-09-07T03:45:17;2.25;;;1.65;;
55601;SDS011;59921;51.332;12.410;2023-09-07T03:47:42;1.40;;;1.30;;
55601;SDS011;59921;51.332;12.410;2023-09-07T03:50:09;1.45;;;1.35;;
55601;SDS011;59921;51.332;12.410;2023-09-07T03:52:35;1.50;;;1.40;;
55601;SDS011;59921;51.332;12.410;2023-09-07T03:55:00;1.50;;;1.40;;
55601;SDS011;59921;51.332;12.410;2023-09-07T03:57:27;1.50;;;1.40;;
55601;SDS011;59921;51.332;12.410;2023-09-07T03:59:53;1.95;;;1.45;;
55601;SDS011;59921;51.332;12.410;2023-09-07T04:02:22;1.85;;;1.23;;
55601;SDS011;59921;51.332;12.410;2023-09-07T04:04:51;1.20;;;1.10;;
55601;SDS011;59921;51.332;12.410;2023-09-07T04:07:17;1.30;;;1.20;;
55601;SDS011;59921;51.332;12.410;2023-09-07T04:09:44;1.40;;;1.30;;
55601;SDS011;59921;51.332;12.410;2023-09-07T04:12:10;1.52;;;1.38;;
55601;SDS011;59921;51.332;12.410;2023-09-07T04:14:36;1.30;;;1.20;;
55601;SDS011;59921;51.332;12.410;2023-09-07T04:17:02;1.50;;;1.40;;
55601;SDS011;59921;51.332;12.410;2023-09-07T04:19:27;1.63;;;1.35;;
55601;SDS011;59921;51.332;12.410;2023-09-07T04:21:53;1.58;;;1.48;;
55601;SDS011;59921;51.332;12.410;2023-09-07T04:24:18;1.35;;;1.25;;
55601;SDS011;59921;51.332;12.410;2023-09-07T04:26:44;1.50;;;1.40;;
55601;SDS011;59921;51.332;12.410;2023-09-07T04:29:09;1.35;;;1.25;;
55601;SDS011;59921;51.332;12.410;2023-09-07T04:31:36;1.58;;;1.33;;
55601;SDS011;59921;51.332;12.410;2023-09-07T04:34:02;1.65;;;1.55;;
55601;SDS011;59921;51.332;12.410;2023-09-07T04:36:28;1.50;;;1.38;;
55601;SDS011;59921;51.332;12.410;2023-09-07T04:38:54;1.15;;;1.05;;
55601;SDS011;59921;51.332;12.410;2023-09-07T04:41:19;1.40;;;1.30;;
55601;SDS011;59921;51.332;12.410;2023-09-07T04:43:45;1.77;;;1.40;;
55601;SDS011;59921;51.332;12.410;2023-09-07T04:46:11;1.10;;;1.00;;
55601;SDS011;59921;51.332;12.410;2023-09-07T04:48:37;1.85;;;1.33;;
55601;SDS011;59921;51.332;12.410;2023-09-07T04:51:04;1.50;;;1.30;;
55601;SDS011;59921;51.332;12.410;2023-09-07T04:53:32;1.75;;;1.27;;
55601;SDS011;59921;51.332;12.410;2023-09-07T04:55:59;1.33;;;1.23;;
55601;SDS011;59921;51.332;12.410;2023-09-07T04:58:25;1.40;;;1.30;;
55601;SDS011;59921;51.332;12.410;2023-09-07T05:00:51;1.35;;;1.17;;
55601;SDS011;59921;51.332;12.410;2023-09-07T05:03:17;1.70;;;1.35;;
55601;SDS011;59921;51.332;12.410;2023-09-07T05:05:42;1.40;;;1.25;;
55601;SDS011;59921;51.332;12.410;2023-09-07T05:08:11;1.60;;;1.25;;
55601;SDS011;59921;51.332;12.410;2023-09-07T05:10:37;1.30;;;1.20;;
55601;SDS011;59921;51.332;12.410;2023-09-07T05:13:03;1.50;;;1.30;;
55601;SDS011;59921;51.332;12.410;2023-09-07T05:15:29;1.23;;;1.13;;
55601;SDS011;59921;51.332;12.410;2023-09-07T05:17:54;1.42;;;1.25;;
55601;SDS011;59921;51.332;12.410;2023-09-07T05:20:20;1.38;;;1.27;;
55601;SDS011;59921;51.332;12.410;2023-09-07T05:22:46;1.45;;;1.20;;
55601;SDS011;59921;51.332;12.410;2023-09-07T05:25:12;1.33;;;1.23;;
55601;SDS011;59921;51.332;12.410;2023-09-07T05:27:38;1.30;;;1.20;;
55601;SDS011;59921;51.332;12.410;2023-09-07T05:30:04;1.42;;;1.33;;
55601;SDS011;59921;51.332;12.410;2023-09-07T05:32:30;1.40;;;1.30;;
55601;SDS011;59921;51.332;12.410;2023-09-07T05:34:55;1.50;;;1.40;;
55601;SDS011;59921;51.332;12.410;2023-09-07T05:37:21;1.42;;;1.33;;
55601;SDS011;59921;51.332;12.410;2023-09-07T05:39:46;1.30;;;1.20;;
55601;SDS011;59921;51.332;12.410;2023-09-07T05:42:12;1.20;;;1.10;;
55601;SDS011;59921;51.332;12.410;2023-09-07T05:44:38;1.50;;;1.35;;
55601;SDS011;59921;51.332;12.410;2023-09-07T05:47:04;1.45;;;1.35;;
55601;SDS011;59921;51.332;12.410;2023-09-07T05:49:29;2.50;;;1.10;;
55601;SDS011;59921;51.332;12.410;2023-09-07T05:51:55;1.20;;;1.10;;
55601;SDS011;59921;51.332;12.410;2023-09-07T05:54:21;1.30;;;1.13;;
55601;SDS011;59921;51.332;12.410;2023-09-07T05:56:47;1.48;;;1.38;;
55601;SDS011;59921;51.332;12.410;2023-09-07T05:59:12;1.80;;;1.17;;
55601;SDS011;59921;51.332;12.410;2023-09-07T06:01:38;1.70;;;1.48;;
55601;SDS011;59921;51.332;12.410;2023-09-07T06:04:05;2.72;;;1.48;;
55601;SDS011;59921;51.332;12.410;2023-09-07T06:06:33;1.85;;;1.65;;
55601;SDS011;59921;51.332;12.410;2023-09-07T06:08:59;3.53;;;1.70;;
55601;SDS011;59921;51.332;12.410;2023-09-07T06:11:25;2.88;;;1.50;;
55601;SDS011;59921;51.332;12.410;2023-09-07T06:13:50;3.30;;;1.60;;
55601;SDS011;59921;51.332;12.410;2023-09-07T06:16:16;5.63;;;1.90;;
55601;SDS011;59921;51.332;12.410;2023-09-07T06:18:42;3.25;;;1.60;;
55601;SDS011;59921;51.332;12.410;2023-09-07T06:21:07;2.58;;;1.75;;
55601;SDS011;59921;51.332;12.410;2023-09-07T06:23:33;3.25;;;1.60;;
55601;SDS011;59921;51.332;12.410;2023-09-07T06:25:59;3.90;;;1.58;;
55601;SDS011;59921;51.332;12.410;2023-09-07T06:28:26;2.30;;;1.60;;
55601;SDS011;59921;51.332;12.410;2023-09-07T06:30:51;2.00;;;1.55;;
55601;SDS011;59921;51.332;12.410;2023-09-07T06:33:17;1.88;;;1.35;;
55601;SDS011;59921;51.332;12.410;2023-09-07T06:35:42;1.98;;;1.50;;
55601;SDS011;59921;51.332;12.410;2023-09-07T06:38:08;2.78;;;1.75;;
55601;SDS011;59921;51.332;12.410;2023-09-07T06:40:33;6.05;;;1.73;;
55601;SDS011;59921;51.332;12.410;2023-09-07T06:42:59;3.38;;;1.50;;
55601;SDS011;59921;51.332;12.410;2023-09-07T06:45:25;2.20;;;1.80;;
55601;SDS011;59921;51.332;12.410;2023-09-07T06:47:51;2.72;;;1.67;;
55601;SDS011;59921;51.332;12.410;2023-09-07T06:50:16;2.72;;;1.42;;
55601;SDS011;59921;51.332;12.410;2023-09-07T06:52:42;2.05;;;1.50;;
55601;SDS011;59921;51.332;12.410;2023-09-07T06:55:07;2.42;;;1.80;;
55601;SDS011;59921;51.332;12.410;2023-09-07T06:57:33;2.38;;;1.70;;
55601;SDS011;59921;51.332;12.410;2023-09-07T06:59:59;3.50;;;1.80;;
55601;SDS011;59921;51.332;12.410;2023-09-07T07:02:25;1.60;;;1.48;;
55601;SDS011;59921;51.332;12.410;2023-09-07T07:04:51;2.28;;;1.70;;
55601;SDS011;59921;51.332;12.410;2023-09-07T07:07:17;2.08;;;1.40;;
55601;SDS011;59921;51.332;12.410;2023-09-07T07:09:43;2.20;;;1.60;;
55601;SDS011;59921;51.332;12.410;2023-09-07T07:12:08;1.98;;;1.50;;
55601;SDS011;59921;51.332;12.410;2023-09-07T07:14:34;2.42;;;1.30;;
55601;SDS011;59921;51.332;12.410;2023-09-07T07:17:00;2.40;;;1.50;;
55601;SDS011;59921;51.332;12.410;2023-09-07T07:19:30;1.98;;;1.50;;
55601;SDS011;59921;51.332;12.410;2023-09-07T07:21:55;2.80;;;1.60;;
55601;SDS011;59921;51.332;12.410;2023-09-07T07:24:21;2.70;;;1.60;;
55601;SDS011;59921;51.332;12.410;2023-09-07T07:26:47;2.33;;;1.65;;
55601;SDS011;59921;51.332;12.410;2023-09-07T07:29:12;2.10;;;1.52;;
55601;SDS011;59921;51.332;12.410;2023-09-07T07:31:38;2.30;;;1.80;;
55601;SDS011;59921;51.332;12.410;2023-09-07T07:34:03;2.30;;;1.38;;
55601;SDS011;59921;51.332;12.410;2023-09-07T07:36:29;2.10;;;1.33;;
55601;SDS011;59921;51.332;12.410;2023-09-07T07:38:54;1.70;;;1.40;;
55601;SDS011;59921;51.332;12.410;2023-09-07T07:41:20;2.20;;;1.45;;
55601;SDS011;59921;51.332;12.410;2023-09-07T07:43:45;1.65;;;1.27;;
55601;SDS011;59921;51.332;12.410;2023-09-07T07:46:11;2.25;;;1.30;;
55601;SDS011;59921;51.332;12.410;2023-09-07T07:48:37;2.60;;;1.63;;
55601;SDS011;59921;51.332;12.410;2023-09-07T07:51:03;3.40;;;1.60;;
55601;SDS011;59921;51.332;12.410;2023-09-07T07:53:29;1.58;;;1.40;;
55601;SDS011;59921;51.332;12.410;2023-09-07T07:55:56;2.28;;;1.52;;
55601;SDS011;59921;51.332;12.410;2023-09-07T07:58:22;2.33;;;1.60;;
55601;SDS011;59921;51.332;12.410;2023-09-07T08:00:48;2.03;;;1.55;;
55601;SDS011;59921;51.332;12.410;2023-09-07T08:03:14;2.67;;;1.70;;
55601;SDS011;59921;51.332;12.410;2023-09-07T08:05:40;3.33;;;2.33;;
55601;SDS011;59921;51.332;12.410;2023-09-07T08:08:06;2.85;;;2.10;;
55601;SDS011;59921;51.332;12.410;2023-09-07T08:10:35;2.25;;;1.98;;
55601;SDS011;59921;51.332;12.410;2023-09-07T08:13:06;2.45;;;1.73;;
55601;SDS011;59921;51.332;12.410;2023-09-07T08:15:33;2.35;;;1.60;;
55601;SDS011;59921;51.332;12.410;2023-09-07T08:17:58;2.38;;;1.63;;
55601;SDS011;59921;51.332;12.410;2023-09-07T08:20:25;2.80;;;1.80;;
55601;SDS011;59921;51.332;12.410;2023-09-07T08:22:51;2.38;;;1.70;;
55601;SDS011;59921;51.332;12.410;2023-09-07T08:25:18;2.97;;;1.90;;
55601;SDS011;59921;51.332;12.410;2023-09-07T08:27:43;2.20;;;1.50;;
55601;SDS011;59921;51.332;12.410;2023-09-07T08:30:11;2.20;;;1.70;;
55601;SDS011;59921;51.332;12.410;2023-09-07T08:32:39;2.22;;;1.80;;
55601;SDS011;59921;51.332;12.410;2023-09-07T08:35:05;2.35;;;1.63;;
55601;SDS011;59921;51.332;12.410;2023-09-07T08:37:33;2.40;;;1.67;;
55601;SDS011;59921;51.332;12.410;2023-09-07T08:39:59;2.67;;;1.60;;
55601;SDS011;59921;51.332;12.410;2023-09-07T08:42:25;3.08;;;1.60;;
55601;SDS011;59921;51.332;12.410;2023-09-07T08:44:51;2.17;;;1.80;;
55601;SDS011;59921;51.332;12.410;2023-09-07T08:47:19;2.85;;;1.73;;
55601;SDS011;59921;51.332;12.410;2023-09-07T08:49:46;2.85;;;1.48;;
55601;SDS011;59921;51.332;12.410;2023-09-07T08:52:12;2.67;;;1.60;;
55601;SDS011;59921;51.332;12.410;2023-09-07T08:54:41;1.70;;;1.35;;
55601;SDS011;59921;51.332;12.410;2023-09-07T08:57:08;1.85;;;1.65;;
55601;SDS011;59921;51.332;12.410;2023-09-07T08:59:36;2.20;;;1.63;;
55601;SDS011;59921;51.332;12.410;2023-09-07T09:02:01;3.47;;;1.80;;
55601;SDS011;59921;51.332;12.410;2023-09-07T09:04:29;2.13;;;1.67;;
55601;SDS011;59921;51.332;12.410;2023-09-07T09:06:55;3.00;;;1.70;;
55601;SDS011;59921;51.332;12.410;2023-09-07T09:09:24;1.98;;;1.73;;
55601;SDS011;59921;51.332;12.410;2023-09-07T09:11:50;2.30;;;1.67;;
55601;SDS011;59921;51.332;12.410;2023-09-07T09:14:16;1.90;;;1.70;;
55601;SDS011;59921;51.332;12.410;2023-09-07T09:16:50;2.30;;;1.65;;
55601;SDS011;59921;51.332;12.410;2023-09-07T09:19:16;2.80;;;1.70;;
55601;SDS011;59921;51.332;12.410;2023-09-07T09:21:42;3.38;;;1.67;;
55601;SDS011;59921;51.332;12.410;2023-09-07T09:24:10;2.00;;;1.70;;
55601;SDS011;59921;51.332;12.410;2023-09-07T09:26:39;2.15;;;1.58;;
55601;SDS011;59921;51.332;12.410;2023-09-07T09:29:04;1.85;;;1.65;;
55601;SDS011;59921;51.332;12.410;2023-09-07T09:31:30;2.30;;;1.60;;
55601;SDS011;59921;51.332;12.410;2023-09-07T09:33:56;2.28;;;1.85;;
55601;SDS011;59921;51.332;12.410;2023-09-07T09:36:22;2.17;;;1.70;;
55601;SDS011;59921;51.332;12.410;2023-09-07T09:38:51;2.72;;;1.63;;
55601;SDS011;59921;51.332;12.410;2023-09-07T09:41:19;2.55;;;1.40;;
55601;SDS011;59921;51.332;12.410;2023-09-07T09:43:46;2.55;;;1.85;;
55601;SDS011;59921;51.332;12.410;2023-09-07T09:46:16;2.28;;;1.83;;
55601;SDS011;59921;51.332;12.410;2023-09-07T09:48:42;2.03;;;1.83;;
55601;SDS011;59921;51.332;12.410;2023-09-07T09:51:09;2.75;;;2.00;;
55601;SDS011;59921;51.332;12.410;2023-09-07T09:53:36;2.00;;;1.70;;
55601;SDS011;59921;51.332;12.410;2023-09-07T09:56:02;2.22;;;1.70;;
55601;SDS011;59921;51.332;12.410;2023-09-07T09:58:28;2.10;;;1.55;;
55601;SDS011;59921;51.332;12.410;2023-09-07T10:00:55;3.28;;;2.17;;
55601;SDS011;59921;51.332;12.410;2023-09-07T10:05:55;2.22;;;1.75;;
55601;SDS011;59921;51.332;12.410;2023-09-07T10:08:21;1.90;;;1.70;;
55601;SDS011;59921;51.332;12.410;2023-09-07T10:10:53;3.38;;;2.00;;
55601;SDS011;59921;51.332;12.410;2023-09-07T10:13:40;2.15;;;1.60;;
55601;SDS011;59921;51.332;12.410;2023-09-07T10:16:05;1.83;;;1.63;;
55601;SDS011;59921;51.332;12.410;2023-09-07T10:18:38;2.15;;;1.88;;
55601;SDS011;59921;51.332;12.410;2023-09-07T10:21:04;1.85;;;1.60;;
55601;SDS011;59921;51.332;12.410;2023-09-07T10:23:40;3.20;;;2.00;;
55601;SDS011;59921;51.332;12.410;2023-09-07T10:26:11;2.13;;;1.90;;
55601;SDS011;59921;51.332;12.410;2023-09-07T10:28:38;2.30;;;1.60;;
55601;SDS011;59921;51.332;12.410;2023-09-07T10:31:14;2.50;;;1.90;;
55601;SDS011;59921;51.332;12.410;2023-09-07T10:33:42;2.13;;;1.88;;
55601;SDS011;59921;51.332;12.410;2023-09-07T10:36:08;1.98;;;1.70;;
55601;SDS011;59921;51.332;12.410;2023-09-07T10:38:48;2.20;;;1.90;;
55601;SDS011;59921;51.332;12.410;2023-09-07T10:41:14;3.35;;;2.13;;
55601;SDS011;59921;51.332;12.410;2023-09-07T10:43:49;2.60;;;1.83;;
55601;SDS011;59921;51.332;12.410;2023-09-07T10:46:19;1.98;;;1.77;;
55601;SDS011;59921;51.332;12.410;2023-09-07T10:48:48;1.70;;;1.60;;
55601;SDS011;59921;51.332;12.410;2023-09-07T10:51:14;2.38;;;1.88;;
55601;SDS011;59921;51.332;12.410;2023-09-07T10:53:40;3.17;;;1.80;;
55601;SDS011;59921;51.332;12.410;2023-09-07T10:56:06;1.75;;;1.55;;
55601;SDS011;59921;51.332;12.410;2023-09-07T10:58:35;1.92;;;1.75;;
55601;SDS011;59921;51.332;12.410;2023-09-07T11:01:05;2.17;;;1.90;;
55601;SDS011;59921;51.332;12.410;2023-09-07T11:03:31;2.40;;;2.20;;
55601;SDS011;59921;51.332;12.410;2023-09-07T11:08:22;2.50;;;1.90;;
55601;SDS011;59921;51.332;12.410;2023-09-07T11:10:49;2.10;;;1.90;;
55601;SDS011;59921;51.332;12.410;2023-09-07T11:13:16;3.17;;;1.90;;
55601;SDS011;59921;51.332;12.410;2023-09-07T11:15:42;2.80;;;1.80;;
55601;SDS011;59921;51.332;12.410;2023-09-07T11:18:08;2.38;;;1.90;;
55601;SDS011;59921;51.332;12.410;2023-09-07T11:20:35;2.45;;;1.85;;
55601;SDS011;59921;51.332;12.410;2023-09-07T11:23:01;2.20;;;1.95;;
55601;SDS011;59921;51.332;12.410;2023-09-07T11:25:33;3.67;;;1.85;;
55601;SDS011;59921;51.332;12.410;2023-09-07T11:28:03;2.20;;;1.80;;
55601;SDS011;59921;51.332;12.410;2023-09-07T11:30:29;2.47;;;1.77;;
55601;SDS011;59921;51.332;12.410;2023-09-07T11:33:06;2.80;;;1.92;;
55601;SDS011;59921;51.332;12.410;2023-09-07T11:35:33;2.00;;;1.80;;
55601;SDS011;59921;51.332;12.410;2023-09-07T11:38:02;2.78;;;1.67;;
55601;SDS011;59921;51.332;12.410;2023-09-07T11:40:30;2.50;;;1.95;;
55601;SDS011;59921;51.332;12.410;2023-09-07T11:42:56;1.83;;;1.70;;
55601;SDS011;59921;51.332;12.410;2023-09-07T11:45:21;2.10;;;1.90;;
55601;SDS011;59921;51.332;12.410;2023-09-07T11:47:47;1.98;;;1.70;;
55601;SDS011;59921;51.332;12.410;2023-09-07T11:50:13;1.70;;;1.60;;
55601;SDS011;59921;51.332;12.410;2023-09-07T11:52:39;2.90;;;2.08;;
55601;SDS011;59921;51.332;12.410;2023-09-07T11:55:04;2.17;;;1.90;;
55601;SDS011;59921;51.332;12.410;2023-09-07T11:57:30;2.00;;;1.80;;
55601;SDS011;59921;51.332;12.410;2023-09-07T11:59:56;2.15;;;1.90;;
55601;SDS011;59921;51.332;12.410;2023-09-07T12:02:21;2.47;;;1.90;;
55601;SDS011;59921;51.332;12.410;2023-09-07T12:04:47;2.45;;;1.88;;
55601;SDS011;59921;51.332;12.410;2023-09-07T12:07:14;2.33;;;2.00;;
55601;SDS011;59921;51.332;12.410;2023-09-07T12:09:39;2.45;;;1.98;;
55601;SDS011;59921;51.332;12.410;2023-09-07T12:12:05;2.20;;;2.00;;
55601;SDS011;59921;51.332;12.410;2023-09-07T12:14:31;2.03;;;1.80;;
55601;SDS011;59921;51.332;12.410;2023-09-07T12:16:57;2.95;;;1.80;;
55601;SDS011;59921;51.332;12.410;2023-09-07T12:19:22;1.80;;;1.63;;
55601;SDS011;59921;51.332;12.410;2023-09-07T12:21:48;2.20;;;1.80;;
55601;SDS011;59921;51.332;12.410;2023-09-07T12:24:14;2.80;;;1.90;;
55601;SDS011;59921;51.332;12.410;2023-09-07T12:26:39;1.90;;;1.70;;
55601;SDS011;59921;51.332;12.410;2023-09-07T12:29:05;2.90;;;1.80;;
55601;SDS011;59921;51.332;12.410;2023-09-07T12:31:31;2.03;;;1.73;;
55601;SDS011;59921;51.332;12.410;2023-09-07T12:33:57;2.10;;;1.75;;
55601;SDS011;59921;51.332;12.410;2023-09-07T12:36:22;2.03;;;1.83;;
55601;SDS011;59921;51.332;12.410;2023-09-07T12:38:48;2.03;;;1.83;;
55601;SDS011;59921;51.332;12.410;2023-09-07T12:41:14;2.22;;;1.77;;
55601;SDS011;59921;51.332;12.410;2023-09-07T12:43:40;2.35;;;1.67;;
55601;SDS011;59921;51.332;12.410;2023-09-07T12:46:08;1.98;;;1.77;;
55601;SDS011;59921;51.332;12.410;2023-09-07T12:48:34;2.30;;;1.73;;
55601;SDS011;59921;51.332;12.410;2023-09-07T12:50:59;1.90;;;1.70;;
55601;SDS011;59921;51.332;12.410;2023-09-07T12:53:25;2.03;;;1.83;;
55601;SDS011;59921;51.332;12.410;2023-09-07T12:55:52;2.60;;;1.70;;
55601;SDS011;59921;51.332;12.410;2023-09-07T12:58:18;2.00;;;1.77;;
55601;SDS011;59921;51.332;12.410;2023-09-07T13:00:43;2.28;;;1.63;;
55601;SDS011;59921;51.332;12.410;2023-09-07T13:03:09;1.70;;;1.60;;
55601;SDS011;59921;51.332;12.410;2023-09-07T13:05:36;1.92;;;1.58;;
55601;SDS011;59921;51.332;12.410;2023-09-07T13:08:02;2.33;;;1.92;;
55601;SDS011;59921;51.332;12.410;2023-09-07T13:10:28;2.20;;;1.80;;
55601;SDS011;59921;51.332;12.410;2023-09-07T13:12:54;1.95;;;1.63;;
55601;SDS011;59921;51.332;12.410;2023-09-07T13:15:22;1.95;;;1.75;;
55601;SDS011;59921;51.332;12.410;2023-09-07T13:17:48;2.17;;;1.60;;
55601;SDS011;59921;51.332;12.410;2023-09-07T13:20:13;2.25;;;1.83;;
55601;SDS011;59921;51.332;12.410;2023-09-07T13:22:39;2.88;;;1.98;;
55601;SDS011;59921;51.332;12.410;2023-09-07T13:25:05;2.83;;;1.95;;
55601;SDS011;59921;51.332;12.410;2023-09-07T13:27:30;2.85;;;2.10;;
55601;SDS011;59921;51.332;12.410;2023-09-07T13:29:56;2.40;;;1.70;;
55601;SDS011;59921;51.332;12.410;2023-09-07T13:32:22;2.15;;;1.92;;
55601;SDS011;59921;51.332;12.410;2023-09-07T13:34:50;1.75;;;1.63;;
55601;SDS011;59921;51.332;12.410;2023-09-07T13:37:15;2.20;;;1.85;;
55601;SDS011;59921;51.332;12.410;2023-09-07T13:39:41;1.80;;;1.65;;
55601;SDS011;59921;51.332;12.410;2023-09-07T13:42:07;2.80;;;1.52;;
55601;SDS011;59921;51.332;12.410;2023-09-07T13:44:32;1.98;;;1.73;;
55601;SDS011;59921;51.332;12.410;2023-09-07T13:46:58;1.90;;;1.70;;
55601;SDS011;59921;51.332;12.410;2023-09-07T13:49:23;2.17;;;1.80;;
55601;SDS011;59921;51.332;12.410;2023-09-07T13:51:49;1.67;;;1.58;;
55601;SDS011;59921;51.332;12.410;2023-09-07T13:54:14;2.63;;;1.90;;
55601;SDS011;59921;51.332;12.410;2023-09-07T13:56:40;1.95;;;1.77;;
55601;SDS011;59921;51.332;12.410;2023-09-07T13:59:07;2.28;;;1.90;;
55601;SDS011;59921;51.332;12.410;2023-09-07T14:01:33;2.70;;;1.63;;
55601;SDS011;59921;51.332;12.410;2023-09-07T14:03:58;2.20;;;1.67;;
55601;SDS011;59921;51.332;12.410;2023-09-07T14:06:24;2.33;;;1.98;;
55601;SDS011;59921;51.332;12.410;2023-09-07T14:08:50;2.00;;;1.80;;
55601;SDS011;59921;51.332;12.410;2023-09-07T14:11:16;2.60;;;1.98;;
55601;SDS011;59921;51.332;12.410;2023-09-07T14:13:42;1.95;;;1.73;;
55601;SDS011;59921;51.332;12.410;2023-09-07T14:16:08;1.90;;;1.60;;
55601;SDS011;59921;51.332;12.410;2023-09-07T14:18:36;1.70;;;1.60;;
55601;SDS011;59921;51.332;12.410;2023-09-07T14:21:02;2.00;;;1.70;;
55601;SDS011;59921;51.332;12.410;2023-09-07T14:23:29;1.95;;;1.75;;
55601;SDS011;59921;51.332;12.410;2023-09-07T14:25:55;1.70;;;1.60;;
55601;SDS011;59921;51.332;12.410;2023-09-07T14:28:21;2.80;;;1.70;;
55601;SDS011;59921;51.332;12.410;2023-09-07T14:30:46;1.80;;;1.50;;
55601;SDS011;59921;51.332;12.410;2023-09-07T14:33:13;1.77;;;1.65;;